createdAt,value
2022-08-21T00:01:54.254Z,10.95
2022-08-21T00:04:22.477Z,10.10
2022-08-21T00:06:51.263Z,13.35
2022-08-21T00:09:19.705Z,13.18
2022-08-21T00:11:48.095Z,12.38
2022-08-21T00:14:15.797Z,9.38
2022-08-21T00:16:42.725Z,14.35
2022-08-21T00:19:09.939Z,10.40
2022-08-21T00:21:40.260Z,13.38
2022-08-21T00:24:08.430Z,13.07
2022-08-21T00:26:35.412Z,15.77
2022-08-21T00:29:05.013Z,14.10
2022-08-21T00:31:32.206Z,14.60
2022-08-21T00:34:00.864Z,11.82
2022-08-21T00:36:28.498Z,10.87
2022-08-21T00:38:55.688Z,12.02
2022-08-21T00:41:38.306Z,13.98
2022-08-21T00:44:10.953Z,12.50
2022-08-21T00:46:38.608Z,16.60
2022-08-21T00:49:07.290Z,17.27
2022-08-21T00:51:44.652Z,11.25
2022-08-21T00:54:18.311Z,13.10
2022-08-21T00:56:50.026Z,15.73
2022-08-21T00:59:20.141Z,13.55
2022-08-21T01:01:47.607Z,11.48
2022-08-21T01:04:16.652Z,10.85
2022-08-21T01:06:43.992Z,14.23
2022-08-21T01:09:11.186Z,13.00
2022-08-21T01:11:38.627Z,12.65
2022-08-21T01:14:05.575Z,14.32
2022-08-21T01:16:34.123Z,15.00
2022-08-21T01:19:01.194Z,14.87
2022-08-21T01:21:29.444Z,15.80
2022-08-21T01:23:57.802Z,11.85
2022-08-21T01:26:33.893Z,9.63
2022-08-21T01:29:12.860Z,16.73
2022-08-21T01:31:40.298Z,13.75
2022-08-21T01:34:08.171Z,13.63
2022-08-21T01:36:35.576Z,11.18
2022-08-21T01:39:04.700Z,13.57
2022-08-21T01:41:31.923Z,14.38
2022-08-21T01:43:58.748Z,12.85
2022-08-21T01:46:25.763Z,13.80
2022-08-21T01:48:52.898Z,16.83
2022-08-21T01:51:19.800Z,16.00
2022-08-21T01:53:46.784Z,13.40
2022-08-21T01:56:16.442Z,17.27
2022-08-21T01:58:45.531Z,15.45
2022-08-21T02:01:12.823Z,14.35
2022-08-21T02:03:40.271Z,19.90
2022-08-21T02:06:08.883Z,11.23
2022-08-21T02:08:35.694Z,13.23
2022-08-21T02:11:02.672Z,14.77
2022-08-21T02:13:29.650Z,11.77
2022-08-21T02:15:56.704Z,18.23
2022-08-21T02:18:24.190Z,13.57
2022-08-21T02:20:54.120Z,10.93
2022-08-21T02:23:26.967Z,14.02
2022-08-21T02:26:02.644Z,12.13
2022-08-21T02:28:30.950Z,12.35
2022-08-21T02:30:58.098Z,13.27
2022-08-21T02:33:26.159Z,12.50
2022-08-21T02:35:54.112Z,16.95
2022-08-21T02:38:31.612Z,17.73
2022-08-21T02:40:58.787Z,14.23
2022-08-21T02:43:27.960Z,13.38
2022-08-21T02:45:57.039Z,17.95
2022-08-21T02:48:27.136Z,16.73
2022-08-21T02:50:59.863Z,16.67
2022-08-21T02:53:28.396Z,13.02
2022-08-21T02:55:57.256Z,13.53
2022-08-21T02:58:28.109Z,18.17
2022-08-21T03:00:55.742Z,17.70
2022-08-21T03:03:23.268Z,16.38
2022-08-21T03:05:51.016Z,15.77
2022-08-21T03:08:19.390Z,14.85
2022-08-21T03:10:49.587Z,16.40
2022-08-21T03:13:17.070Z,19.13
2022-08-21T03:15:44.496Z,15.77
2022-08-21T03:18:13.011Z,15.60
2022-08-21T03:20:41.924Z,14.17
2022-08-21T03:23:14.174Z,13.50
2022-08-21T03:25:44.434Z,15.80
2022-08-21T03:28:19.735Z,16.67
2022-08-21T03:30:48.048Z,15.30
2022-08-21T03:33:15.901Z,13.45
2022-08-21T03:35:45.479Z,16.08
2022-08-21T03:38:14.024Z,14.13
2022-08-21T03:40:42.345Z,16.35
2022-08-21T03:43:10.610Z,16.40
2022-08-21T03:45:38.441Z,16.70
2022-08-21T03:48:07.768Z,15.60
2022-08-21T03:50:40.680Z,19.98
2022-08-21T03:53:15.657Z,17.85
2022-08-21T03:55:46.555Z,15.95
2022-08-21T03:58:16.326Z,14.32
2022-08-21T04:00:46.123Z,10.77
2022-08-21T04:03:13.327Z,20.75
2022-08-21T04:05:41.240Z,15.80
2022-08-21T04:08:08.508Z,14.43
2022-08-21T04:10:37.053Z,25.15
2022-08-21T04:13:05.499Z,15.47
2022-08-21T04:15:32.742Z,15.82
2022-08-21T04:18:00.187Z,13.25
2022-08-21T04:20:27.925Z,15.55
2022-08-21T04:22:55.428Z,13.38
2022-08-21T04:25:24.309Z,16.15
2022-08-21T04:27:52.151Z,16.98
2022-08-21T04:30:19.622Z,23.08
2022-08-21T04:32:49.737Z,19.02
2022-08-21T04:35:22.056Z,14.95
2022-08-21T04:37:49.900Z,13.75
2022-08-21T04:40:17.953Z,15.77
2022-08-21T04:42:50.265Z,14.40
2022-08-21T04:45:24.531Z,13.07
2022-08-21T04:47:53.454Z,14.00
2022-08-21T04:50:28.081Z,16.90
2022-08-21T04:53:06.186Z,17.95
2022-08-21T04:55:33.641Z,16.77
2022-08-21T04:58:01.105Z,16.40
2022-08-21T05:00:28.246Z,13.73
2022-08-21T05:03:00.006Z,13.43
2022-08-21T05:05:29.984Z,16.20
2022-08-21T05:07:58.463Z,14.65
2022-08-21T05:10:26.650Z,20.98
2022-08-21T05:12:54.038Z,14.27
2022-08-21T05:15:21.822Z,16.67
2022-08-21T05:17:53.578Z,13.40
2022-08-21T05:20:27.491Z,16.33
2022-08-21T05:22:55.465Z,15.40
2022-08-21T05:25:23.879Z,13.75
2022-08-21T05:27:52.325Z,20.77
2022-08-21T05:30:20.551Z,14.02
2022-08-21T05:32:48.738Z,13.27
2022-08-21T05:35:16.287Z,19.20
2022-08-21T05:37:43.279Z,15.45
2022-08-21T05:40:21.720Z,16.85
2022-08-21T05:42:55.409Z,17.10
2022-08-21T05:45:41.701Z,15.07
2022-08-21T05:48:12.393Z,18.67
2022-08-21T05:50:39.778Z,18.42
2022-08-21T05:53:07.460Z,18.48
2022-08-21T05:55:36.359Z,13.95
2022-08-21T05:58:03.963Z,19.90
2022-08-21T06:00:31.223Z,14.93
2022-08-21T06:02:58.104Z,17.85
2022-08-21T06:05:36.658Z,14.85
2022-08-21T06:08:05.016Z,17.67
2022-08-21T06:10:32.289Z,17.00
2022-08-21T06:12:59.557Z,16.98
2022-08-21T06:15:26.734Z,17.77
2022-08-21T06:17:54.736Z,13.95
2022-08-21T06:20:22.487Z,13.32
2022-08-21T06:22:49.490Z,18.77
2022-08-21T06:25:16.504Z,19.70
2022-08-21T06:27:43.409Z,13.45
2022-08-21T06:30:10.953Z,20.55
2022-08-21T06:32:38.571Z,20.95
2022-08-21T06:35:07.042Z,17.73
2022-08-21T06:37:34.068Z,21.73
2022-08-21T06:40:01.041Z,15.68
2022-08-21T06:42:29.138Z,16.58
2022-08-21T06:44:57.558Z,22.88
2022-08-21T06:47:24.396Z,20.73
2022-08-21T06:49:51.283Z,16.35
2022-08-21T06:52:18.220Z,16.73
2022-08-21T06:54:45.198Z,17.20
2022-08-21T06:57:12.124Z,16.33
2022-08-21T06:59:39.072Z,14.38
2022-08-21T07:02:06.000Z,15.88
2022-08-21T07:04:33.107Z,16.10
2022-08-21T07:07:00.403Z,19.20
2022-08-21T07:09:27.755Z,16.73
2022-08-21T07:11:56.648Z,16.42
2022-08-21T07:14:23.603Z,20.42
2022-08-21T07:16:52.068Z,18.70
2022-08-21T07:19:19.789Z,16.47
2022-08-21T07:21:47.470Z,14.43
2022-08-21T07:24:14.687Z,17.85
2022-08-21T07:26:41.725Z,22.45
2022-08-21T07:29:08.631Z,14.35
2022-08-21T07:31:35.748Z,13.68
2022-08-21T07:34:03.072Z,17.13
2022-08-21T07:36:29.943Z,20.42
2022-08-21T07:39:00.296Z,19.30
2022-08-21T07:41:30.041Z,13.13
2022-08-21T07:44:00.916Z,26.52
2022-08-21T07:46:28.331Z,21.65
2022-08-21T07:48:55.666Z,27.88
2022-08-21T07:51:27.802Z,13.07
2022-08-21T07:53:56.399Z,17.00
2022-08-21T07:56:23.704Z,14.40
2022-08-21T07:58:53.263Z,14.18
2022-08-21T08:01:21.062Z,17.70
2022-08-21T08:03:48.856Z,13.80
2022-08-21T08:06:17.567Z,14.50
2022-08-21T08:08:45.683Z,14.95
2022-08-21T08:11:16.087Z,14.13
2022-08-21T08:13:47.577Z,11.55
2022-08-21T08:16:15.051Z,15.15
2022-08-21T08:18:43.056Z,13.20
2022-08-21T08:21:11.232Z,13.35
2022-08-21T08:23:38.393Z,15.30
2022-08-21T08:26:05.567Z,9.68
2022-08-21T08:28:33.512Z,15.30
2022-08-21T08:31:01.384Z,12.00
2022-08-21T08:33:28.562Z,15.93
2022-08-21T08:35:55.882Z,15.73
2022-08-21T08:38:24.860Z,16.70
2022-08-21T08:41:17.496Z,14.65
2022-08-21T08:43:51.635Z,16.25
2022-08-21T08:46:26.849Z,10.30
2022-08-21T08:49:23.104Z,12.18
2022-08-21T08:51:55.740Z,14.80
2022-08-21T08:54:32.500Z,13.90
2022-08-21T08:57:01.395Z,11.35
2022-08-21T08:59:38.809Z,16.15
2022-08-21T09:02:06.662Z,9.95
2022-08-21T09:04:33.564Z,15.13
2022-08-21T09:07:11.514Z,16.67
2022-08-21T09:10:03.020Z,11.15
2022-08-21T09:12:51.149Z,14.15
2022-08-21T09:15:39.896Z,12.45
2022-08-21T09:18:12.762Z,15.15
2022-08-21T09:20:58.975Z,11.48
2022-08-21T09:23:37.932Z,10.45
2022-08-21T09:26:19.214Z,14.07
2022-08-21T09:28:48.633Z,13.18
2022-08-21T09:31:24.181Z,10.93
2022-08-21T09:33:51.252Z,14.63
2022-08-21T09:36:50.156Z,9.25
2022-08-21T09:39:30.206Z,14.73
2022-08-21T09:42:05.077Z,9.18
2022-08-21T09:44:34.499Z,9.95
2022-08-21T09:47:01.869Z,11.25
2022-08-21T09:49:33.612Z,7.60
2022-08-21T09:52:01.797Z,8.32
2022-08-21T09:54:36.207Z,6.55
2022-08-21T09:57:27.517Z,9.48
2022-08-21T09:59:55.912Z,10.02
2022-08-21T10:02:27.595Z,7.38
2022-08-21T10:05:18.257Z,10.90
2022-08-21T10:07:45.604Z,8.98
2022-08-21T10:10:19.966Z,9.93
2022-08-21T10:12:51.119Z,8.45
2022-08-21T10:15:28.749Z,9.30
2022-08-21T10:18:19.522Z,10.00
2022-08-21T10:21:05.972Z,9.15
2022-08-21T10:23:40.590Z,7.68
2022-08-21T10:26:36.952Z,8.20
2022-08-21T10:29:12.245Z,6.03
2022-08-21T10:32:26.265Z,5.90
2022-08-21T10:34:53.590Z,8.02
2022-08-21T10:37:48.202Z,8.63
2022-08-21T10:40:27.613Z,9.77
2022-08-21T10:43:16.805Z,8.20
2022-08-21T10:46:01.519Z,4.88
2022-08-21T10:48:40.468Z,9.05
2022-08-21T10:51:36.541Z,7.72
2022-08-21T10:54:12.596Z,6.13
2022-08-21T10:56:42.418Z,5.32
2022-08-21T10:59:38.541Z,7.03
2022-08-21T11:02:43.579Z,6.07
2022-08-21T11:05:52.836Z,4.55
2022-08-21T11:08:22.502Z,11.18
2022-08-21T11:11:29.395Z,5.82
2022-08-21T11:14:05.814Z,7.07
2022-08-21T11:16:50.057Z,7.55
2022-08-21T11:19:46.089Z,4.32
2022-08-21T11:22:36.059Z,7.85
2022-08-21T11:25:21.489Z,6.32
2022-08-21T11:28:10.945Z,7.00
2022-08-21T11:30:59.053Z,5.45
2022-08-21T11:33:49.007Z,6.68
2022-08-21T11:36:46.969Z,4.50
2022-08-21T11:39:17.230Z,4.55
2022-08-21T11:42:12.756Z,6.32
2022-08-21T11:44:48.487Z,6.85
2022-08-21T11:47:26.084Z,5.28
2022-08-21T11:50:25.646Z,8.32
2022-08-21T11:53:05.404Z,5.03
2022-08-21T11:55:47.592Z,4.53
2022-08-21T11:58:29.328Z,7.47
2022-08-21T12:01:13.783Z,9.40
2022-08-21T12:03:45.442Z,4.95
2022-08-21T12:06:24.303Z,6.03
2022-08-21T12:09:03.927Z,5.35
2022-08-21T12:11:32.878Z,6.60
2022-08-21T12:14:07.510Z,7.32
2022-08-21T12:16:40.856Z,6.68
2022-08-21T12:19:29.264Z,6.47
2022-08-21T12:22:06.203Z,6.25
2022-08-21T12:24:49.758Z,8.00
2022-08-21T12:27:32.272Z,6.60
2022-08-21T12:30:05.057Z,6.35
2022-08-21T12:32:46.274Z,5.82
2022-08-21T12:35:25.327Z,7.97
2022-08-21T12:38:30.094Z,11.45
2022-08-21T12:41:27.487Z,6.75
2022-08-21T12:44:09.855Z,7.15
2022-08-21T12:46:52.304Z,5.95
2022-08-21T12:49:45.526Z,7.13
2022-08-21T12:52:45.973Z,9.15
2022-08-21T12:55:26.640Z,8.32
2022-08-21T12:57:53.506Z,6.32
2022-08-21T13:00:26.082Z,5.60
2022-08-21T13:02:55.485Z,6.68
2022-08-21T13:05:42.704Z,6.10
2022-08-21T13:08:13.299Z,10.10
2022-08-21T13:10:42.021Z,6.80
2022-08-21T13:15:47.583Z,5.40
2022-08-21T13:18:28.557Z,8.52
2022-08-21T13:21:06.389Z,4.78
2022-08-21T13:23:33.941Z,5.00
2022-08-21T13:26:01.002Z,8.00
2022-08-21T13:28:35.175Z,7.75
2022-08-21T13:31:04.852Z,3.78
2022-08-21T13:33:37.406Z,6.93
2022-08-21T13:36:26.087Z,4.45
2022-08-21T13:38:57.114Z,6.95
2022-08-21T13:41:31.851Z,6.57
2022-08-21T13:44:00.625Z,6.68
2022-08-21T13:46:32.356Z,12.68
2022-08-21T13:49:00.810Z,5.03
2022-08-21T13:51:28.578Z,3.80
2022-08-21T13:53:56.701Z,6.38
2022-08-21T13:56:30.533Z,5.72
2022-08-21T13:58:58.814Z,6.22
2022-08-21T14:01:31.611Z,5.15
2022-08-21T14:04:08.386Z,6.47
2022-08-21T14:06:38.595Z,8.50
2022-08-21T14:09:34.064Z,6.30
2022-08-21T14:12:04.513Z,8.95
2022-08-21T14:14:35.017Z,5.80
2022-08-21T14:17:24.463Z,8.35
2022-08-21T14:19:52.579Z,6.20
2022-08-21T14:22:42.278Z,7.57
2022-08-21T14:25:14.479Z,8.02
2022-08-21T14:27:59.724Z,6.25
2022-08-21T14:30:33.107Z,7.32
2022-08-21T14:33:00.759Z,6.05
2022-08-21T14:35:29.468Z,5.28
2022-08-21T14:37:56.931Z,8.57
2022-08-21T14:40:25.840Z,5.55
2022-08-21T14:45:27.096Z,6.35
2022-08-21T14:47:55.252Z,6.07
2022-08-21T14:50:22.433Z,5.50
2022-08-21T14:52:49.526Z,5.90
2022-08-21T14:55:18.839Z,5.05
2022-08-21T14:57:49.943Z,6.68
2022-08-21T15:00:20.676Z,9.27
2022-08-21T15:02:48.027Z,7.43
2022-08-21T15:05:16.880Z,5.97
2022-08-21T15:07:58.618Z,5.57
2022-08-21T15:10:25.548Z,11.55
2022-08-21T15:12:52.675Z,9.80
2022-08-21T15:15:19.765Z,5.47
2022-08-21T15:17:48.521Z,7.80
2022-08-21T15:22:47.503Z,6.10
2022-08-21T15:25:24.907Z,5.40
2022-08-21T15:27:52.303Z,7.93
2022-08-21T15:30:19.424Z,7.07
2022-08-21T15:32:46.445Z,5.18
2022-08-21T15:35:13.311Z,6.72
2022-08-21T15:37:40.492Z,8.27
2022-08-21T15:40:08.753Z,6.57
2022-08-21T15:42:36.016Z,9.63
2022-08-21T15:45:04.804Z,7.28
2022-08-21T15:47:37.744Z,7.15
2022-08-21T15:50:08.371Z,6.05
2022-08-21T15:52:36.023Z,6.32
2022-08-21T15:55:06.275Z,6.63
2022-08-21T15:57:35.022Z,7.90
2022-08-21T16:00:14.371Z,8.25
2022-08-21T16:02:45.647Z,6.95
2022-08-21T16:05:13.138Z,5.10
2022-08-21T16:07:40.602Z,6.68
2022-08-21T16:10:08.290Z,6.55
2022-08-21T16:12:39.656Z,5.60
2022-08-21T16:15:20.435Z,9.43
2022-08-21T16:17:49.864Z,6.50
2022-08-21T16:20:21.377Z,6.93
2022-08-21T16:22:49.171Z,7.38
2022-08-21T16:25:17.766Z,7.78
2022-08-21T16:27:48.942Z,9.02
2022-08-21T16:30:17.273Z,7.55
2022-08-21T16:32:45.328Z,9.00
2022-08-21T16:35:15.268Z,8.82
2022-08-21T16:37:42.814Z,7.43
2022-08-21T16:40:10.638Z,5.88
2022-08-21T16:42:40.453Z,7.35
2022-08-21T16:45:16.612Z,5.75
2022-08-21T16:47:44.687Z,6.00
2022-08-21T16:50:16.170Z,7.15
2022-08-21T16:52:43.232Z,5.97
2022-08-21T16:55:10.232Z,8.00
2022-08-21T16:57:38.105Z,8.98
2022-08-21T17:00:16.166Z,7.53
2022-08-21T17:02:48.994Z,8.20
2022-08-21T17:05:16.380Z,10.07
2022-08-21T17:07:44.008Z,5.55
2022-08-21T17:10:13.612Z,10.57
2022-08-21T17:12:43.144Z,5.60
2022-08-21T17:15:21.858Z,7.35
2022-08-21T17:17:49.642Z,11.27
2022-08-21T17:20:17.700Z,6.22
2022-08-21T17:22:44.627Z,12.20
2022-08-21T17:25:11.591Z,6.03
2022-08-21T17:27:39.941Z,5.75
2022-08-21T17:30:08.251Z,5.05
2022-08-21T17:32:35.298Z,7.03
2022-08-21T17:35:02.755Z,11.30
2022-08-21T17:37:29.801Z,7.55
2022-08-21T17:39:57.455Z,8.73
2022-08-21T17:42:25.262Z,11.02
2022-08-21T17:44:52.371Z,6.00
2022-08-21T17:47:19.341Z,7.30
2022-08-21T17:49:46.339Z,7.97
2022-08-21T17:52:13.386Z,7.93
2022-08-21T17:54:41.231Z,7.95
2022-08-21T17:57:13.000Z,7.20
2022-08-21T17:59:40.308Z,7.03
2022-08-21T18:02:09.936Z,8.55
2022-08-21T18:04:46.909Z,6.50
2022-08-21T18:07:30.756Z,7.95
2022-08-21T18:10:04.415Z,7.30
2022-08-21T18:12:32.901Z,9.48
2022-08-21T18:15:01.334Z,6.70
2022-08-21T18:17:30.361Z,8.93
2022-08-21T18:19:59.677Z,6.03
2022-08-21T18:22:27.537Z,5.78
2022-08-21T18:24:54.523Z,7.07
2022-08-21T18:27:24.639Z,6.47
2022-08-21T18:29:56.960Z,7.00
2022-08-21T18:32:31.547Z,8.57
2022-08-21T18:35:01.782Z,7.63
2022-08-21T18:37:29.396Z,9.65
2022-08-21T18:39:56.539Z,7.47
2022-08-21T18:42:28.324Z,9.50
2022-08-21T18:45:01.702Z,11.05
2022-08-21T18:47:33.753Z,7.68
2022-08-21T18:50:01.471Z,6.50
2022-08-21T18:52:28.843Z,7.03
2022-08-21T18:54:58.123Z,7.38
2022-08-21T18:57:33.452Z,6.63
2022-08-21T19:00:01.550Z,6.53
2022-08-21T19:02:29.101Z,8.23
2022-08-21T19:04:56.231Z,7.63
2022-08-21T19:07:23.397Z,10.25
2022-08-21T19:10:14.127Z,8.20
2022-08-21T19:12:39.011Z,6.25
2022-08-21T19:15:09.391Z,6.95
2022-08-21T19:17:37.406Z,7.32
2022-08-21T19:20:16.751Z,9.70
2022-08-21T19:22:53.582Z,7.40
2022-08-21T19:25:33.774Z,9.77
2022-08-21T19:28:11.071Z,5.70
2022-08-21T19:30:42.087Z,9.27
2022-08-21T19:33:25.780Z,5.18
2022-08-21T19:35:53.483Z,6.00
2022-08-21T19:38:21.183Z,7.05
2022-08-21T19:40:48.942Z,9.73
2022-08-21T19:43:16.603Z,6.70
2022-08-21T19:45:53.141Z,8.45
2022-08-21T19:48:20.593Z,9.63
2022-08-21T19:50:47.605Z,10.95
2022-08-21T19:53:14.442Z,7.00
2022-08-21T19:55:45.772Z,6.65
2022-08-21T19:58:24.521Z,8.88
2022-08-21T20:00:51.584Z,8.25
2022-08-21T20:03:18.493Z,7.88
2022-08-21T20:05:48.324Z,7.85
2022-08-21T20:08:20.455Z,11.85
2022-08-21T20:10:49.940Z,12.73
2022-08-21T20:16:12.308Z,10.90
2022-08-21T20:18:40.595Z,6.65
2022-08-21T20:26:19.507Z,8.20
2022-08-21T20:28:46.595Z,8.13
2022-08-21T20:31:19.602Z,9.98
2022-08-21T20:33:49.550Z,7.85
2022-08-21T20:36:17.847Z,7.57
2022-08-21T20:38:44.959Z,9.82
2022-08-21T20:44:05.245Z,21.88
2022-08-21T20:46:33.123Z,10.90
2022-08-21T20:49:00.810Z,9.38
2022-08-21T20:51:45.332Z,14.07
2022-08-21T20:54:52.459Z,10.48
2022-08-21T20:57:25.873Z,16.40
2022-08-21T20:59:55.520Z,31.08
2022-08-21T21:02:36.270Z,33.63
2022-08-21T21:05:24.596Z,12.88
2022-08-21T21:08:07.045Z,10.73
2022-08-21T21:10:48.687Z,11.82
2022-08-21T21:13:34.793Z,9.10
2022-08-21T21:16:12.790Z,6.68
2022-08-21T21:18:48.162Z,10.32
2022-08-21T21:24:31.717Z,8.25
2022-08-21T21:27:12.263Z,11.38
2022-08-21T21:29:42.097Z,11.77
2022-08-21T21:32:09.177Z,7.28
2022-08-21T21:34:46.260Z,10.02
2022-08-21T21:37:37.350Z,9.88
2022-08-21T21:40:42.303Z,9.30
2022-08-21T21:43:18.479Z,10.40
2022-08-21T21:46:29.839Z,10.30
2022-08-21T21:52:12.805Z,11.82
2022-08-21T21:55:00.977Z,8.77
2022-08-21T21:57:58.390Z,11.32
2022-08-21T22:00:28.089Z,11.52
2022-08-21T22:03:14.376Z,9.48
2022-08-21T22:05:50.457Z,13.15
2022-08-21T22:08:39.199Z,8.95
2022-08-21T22:11:24.176Z,8.60
2022-08-21T22:14:13.508Z,9.90
2022-08-21T22:16:43.590Z,12.02
2022-08-21T22:19:18.079Z,10.52
2022-08-21T22:21:52.000Z,10.38
2022-08-21T22:24:28.570Z,10.68
2022-08-21T22:27:25.238Z,16.33
2022-08-21T22:29:57.677Z,7.95
2022-08-21T22:32:26.988Z,13.30
2022-08-21T22:37:49.651Z,11.48
2022-08-21T22:40:42.597Z,11.73
2022-08-21T22:43:22.472Z,14.10
2022-08-21T22:46:04.128Z,9.85
2022-08-21T22:48:37.060Z,10.80
2022-08-21T22:51:10.122Z,10.52
2022-08-21T22:53:42.382Z,12.15
2022-08-21T22:56:10.671Z,10.88
2022-08-21T22:58:53.623Z,7.63
2022-08-21T23:01:21.070Z,9.63
2022-08-21T23:03:54.309Z,9.07
2022-08-21T23:06:27.720Z,10.13
2022-08-21T23:08:55.126Z,11.07
2022-08-21T23:11:39.739Z,9.63
2022-08-21T23:14:07.591Z,13.23
2022-08-21T23:16:56.673Z,12.30
2022-08-21T23:19:51.171Z,9.48
2022-08-21T23:22:42.715Z,9.48
2022-08-21T23:25:40.535Z,8.00
2022-08-21T23:28:07.882Z,8.93
2022-08-21T23:31:01.010Z,11.63
2022-08-21T23:33:46.380Z,10.30
2022-08-21T23:36:47.025Z,13.30
2022-08-21T23:39:50.243Z,8.68
2022-08-21T23:42:52.597Z,12.07
2022-08-21T23:45:33.034Z,9.93
2022-08-21T23:48:39.106Z,12.70
2022-08-21T23:51:13.508Z,8.77
2022-08-21T23:54:05.322Z,11.27
2022-08-21T23:56:55.377Z,10.63
2022-08-21T23:59:48.689Z,8.65
